Dubrovnik, Hrvatska

02:53 AM CET on Veljača 28, 2015 (GMT +0100)
Cilipi | Change Station
CLOSE
Current Station
Zračna luka
Location: Dubrovnik,
Visina: 541 ft
Nearby Weather Stations

Elev 541 ft 42.56 °N, 18.27 °E | Updated 23 minutes ago

Clear
Vedro
52 °F
Feels Like 52 °F
S
12
Vjetar Varijabla smjera vjetra Vjetar from SI

Danas
High -- | Low -- °F
--% Chance of Precip.
Jučer
High -- | Low -- °F
Precip. -- u
6:24 AM 5:34 PM
Uštap, 73% visible
Pritisak 29.80 u
Vidljivost -9999.0 milja
Oblaci
Točka rose 37 °F
Vlažnost 58%
Kiša 0.00 u
Visina snijega Not available.
UV Not available.
Pollen Not available.
Kvalitet zraka Not available.
Flu Activity Not available.
METAR LDDU 280130Z 04010KT 010V080 CAVOK 11/03 Q1009

More Conditions Fewer Conditions

Pritisak 29.80 u
Vidljivost -9999.0 milja
Oblaci
Točka rose 37 °F
Vlažnost 58%
Kiša 0.00 u
Visina snijega Not available.
UV Not available.
Pollen Not available.
Kvalitet zraka Not available.
Flu Activity Not available.
METAR LDDU 280130Z 04010KT 010V080 CAVOK 11/03 Q1009

More Conditions Fewer Conditions

10-Day Weather Forecast

Almanac

Astronomija

Feb. 28, 2015 Izlazak Zalazak
Trenutno vrijeme
Civilni sumrak
Nautički sumrak
Astronomski sumrak
Moon
Duljina trajanja vidljive svjetlosti
Duljina dana
Tomorrow will be .
, % of the Moon is Illuminated

Današnji ekstremi

Country Highs Country Lows

Community

WunderPhotos

Upload Photos

1,800,924 photos uploaded!

WunderBlogs® & News

Nearby

Kvalitet zraka

  Kvalitet zraka AQ Index Zagadjenje
Not available.

Visina snijega

Station Depth Visina

Earthquake Activity

Grad Distance Mag. Time & Date
Minimum magnitude displayed is 2.5.

Coastal Water Temperatures

Mjesto Temperatura

Nearby Weather Stations